Погода Михеевскоена 2 недели

Республика Дагестан, Россия

19 мая-01 июня
  • 19мая
    Сегодня
    +10°
    +21°
    Облачно с прояснениями
    ВремяПогодаТемператураВлажностьДавлениеВетер, м/сВероятность осадков
    00:00Ясно и безоблачно+11°C78 %763 мм1.6 м/с2 %
    03:00Ясно и безоблачно+9°C89 %763 мм1.6 м/с2 %
    06:00Ясно и безоблачно+11°C78 %763 мм1.5 м/с2 %
    09:00Ясно и безоблачно+18°C42 %763 мм1.3 м/с2 %
    12:00Небольшая облачность+21°C30 %762 мм0.9 м/с1 %
    15:00Облачно с прояснениями+21°C26 %762 мм3.1 м/с4 %
    18:00Облачно с прояснениями+19°C36 %762 мм4.3 м/с4 %
    21:00Пасмурно, сплошная облачность+14°C54 %763 мм2.4 м/с2 %
  • 20мая
    Понедельник
    +10°
    +23°
    Небольшая облачность
    ВремяПогодаТемператураВлажностьДавлениеВетер, м/сВероятность осадков
    00:00Небольшая облачность+12°C61 %763 мм1.6 м/с2 %
    03:00Облачно с прояснениями+11°C68 %763 мм1.3 м/с2 %
    06:00Облачно с прояснениями+13°C69 %763 мм1.1 м/с2 %
    09:00Практически безоблачно+19°C46 %763 мм1.4 м/с2 %
    12:00Практически безоблачно+22°C31 %763 мм1.8 м/с2 %
    15:00Небольшая облачность+23°C27 %762 мм3.4 м/с2 %
    18:00Ясно и безоблачно+20°C32 %763 мм4.3 м/с3 %
    21:00Ясно и безоблачно+15°C50 %764 мм2.7 м/с2 %
  • 21мая
    Вторник
    +11°
    +25°
    Практически безоблачно
    ВремяПогодаТемператураВлажностьДавлениеВетер, м/сВероятность осадков
    00:00Ясно и безоблачно+13°C61 %764 мм1.7 м/с2 %
    03:00Ясно и безоблачно+11°C63 %764 мм1.2 м/с2 %
    06:00Ясно и безоблачно+13°C63 %765 мм1.5 м/с2 %
    09:00Ясно и безоблачно+21°C34 %765 мм2.6 м/с2 %
    12:00Облачно с прояснениями+24°C28 %765 мм3.6 м/с3 %
    15:00Практически безоблачно+23°C36 %765 мм5.3 м/с5 %
    18:00Ясно и безоблачно+20°C44 %765 мм5.1 м/с3 %
    21:00Ясно и безоблачно+15°C64 %766 мм3.3 м/с2 %
  • 22мая
    Среда
    +12°
    +24°
    Ясно и безоблачно
    ВремяПогодаТемператураВлажностьДавлениеВетер, м/сВероятность осадков
    00:00Ясно и безоблачно+13°C86 %765 мм2.9 м/с2 %
    03:00Ясно и безоблачно+12°C92 %764 мм3.1 м/с2 %
    06:00Ясно и безоблачно+15°C76 %764 мм3.9 м/с2 %
    09:00Ясно и безоблачно+21°C49 %764 мм6.8 м/с2 %
    12:00Ясно и безоблачно+23°C38 %763 мм7.6 м/с2 %
    15:00Ясно и безоблачно+23°C38 %763 мм7.2 м/с2 %
    18:00Ясно и безоблачно+19°C44 %763 мм5.7 м/с2 %
    21:00Ясно и безоблачно+15°C79 %763 мм4.3 м/с2 %
  • 23мая
    Четверг
    +12°
    +25°
    Ясно и безоблачно
    ВремяПогодаТемператураВлажностьДавлениеВетер, м/сВероятность осадков
    00:00Ясно и безоблачно+15°C79 %762 мм4.0 м/с2 %
    03:00Ясно и безоблачно+13°C81 %761 мм3.9 м/с2 %
    06:00Ясно и безоблачно+16°C74 %761 мм3.6 м/с3 %
    09:00Ясно и безоблачно+22°C46 %761 мм6.5 м/с3 %
    12:00Ясно и безоблачно+25°C33 %761 мм7.5 м/с5 %
    15:00Ясно и безоблачно+24°C34 %760 мм7.1 м/с6 %
    18:00Ясно и безоблачно+21°C46 %761 мм5.4 м/с3 %
    21:00Ясно и безоблачно+16°C77 %762 мм3.8 м/с2 %
Мы используем cookies
Соглашаюсь